createdAt,value
2018-10-17T00:00:37.372Z,924.04
2018-10-17T00:02:08.947Z,924.01
2018-10-17T00:03:40.822Z,924.04
2018-10-17T00:05:12.210Z,924.04
2018-10-17T00:06:43.666Z,924.10
2018-10-17T00:08:15.239Z,924.12
2018-10-17T00:09:46.813Z,924.10
2018-10-17T00:11:18.386Z,924.10
2018-10-17T00:12:49.959Z,924.13
2018-10-17T00:14:21.532Z,924.16
2018-10-17T00:15:53.106Z,924.20
2018-10-17T00:17:24.687Z,924.20
2018-10-17T00:20:27.825Z,924.13
2018-10-17T00:21:59.500Z,924.07
2018-10-17T00:23:30.972Z,924.16
2018-10-17T00:25:02.614Z,924.17
2018-10-17T00:26:34.119Z,924.17
2018-10-17T00:28:05.713Z,924.26
2018-10-17T00:29:37.265Z,924.28
2018-10-17T00:31:08.905Z,924.35
2018-10-17T00:32:40.419Z,924.35
2018-10-17T00:34:11.986Z,924.31
2018-10-17T00:35:43.558Z,924.40
2018-10-17T00:37:15.259Z,924.49
2018-10-17T00:38:46.705Z,924.56
2018-10-17T00:40:18.416Z,924.56
2018-10-17T00:41:49.852Z,924.57
2018-10-17T00:43:21.524Z,924.56
2018-10-17T00:46:24.572Z,924.57
2018-10-17T00:47:56.146Z,924.58
2018-10-17T00:49:27.718Z,924.56
2018-10-17T00:50:59.291Z,924.58
2018-10-17T00:52:30.864Z,924.54
2018-10-17T00:54:02.438Z,924.51
2018-10-17T00:55:34.010Z,924.49
2018-10-17T00:57:05.585Z,924.49
2018-10-17T00:58:37.257Z,924.46
2018-10-17T01:00:08.731Z,924.43
2018-10-17T01:01:40.303Z,924.45
2018-10-17T01:03:11.878Z,924.38
2018-10-17T01:04:43.452Z,924.40
2018-10-17T01:06:15.024Z,924.42
2018-10-17T01:07:46.596Z,924.49
2018-10-17T01:09:18.169Z,924.45
2018-10-17T01:10:49.742Z,924.46
2018-10-17T01:12:21.315Z,924.42
2018-10-17T01:13:52.889Z,924.36
2018-10-17T01:15:24.478Z,924.39
2018-10-17T01:16:56.624Z,924.35
2018-10-17T01:18:27.609Z,924.31
2018-10-17T01:19:59.182Z,924.30
2018-10-17T01:21:31.236Z,924.31
2018-10-17T01:23:02.572Z,924.26
2018-10-17T01:24:34.115Z,924.28
2018-10-17T01:26:05.614Z,924.26
2018-10-17T01:27:37.247Z,924.27
2018-10-17T01:29:08.873Z,924.27
2018-10-17T01:30:40.198Z,924.32
2018-10-17T01:32:12.718Z,924.30
2018-10-17T01:33:43.343Z,924.25
2018-10-17T01:35:15.096Z,924.26
2018-10-17T01:36:46.489Z,924.17
2018-10-17T01:38:18.063Z,924.18
2018-10-17T01:41:21.211Z,924.29
2018-10-17T01:42:53.022Z,924.27
2018-10-17T01:44:24.357Z,924.27
2018-10-17T01:45:55.930Z,924.34
2018-10-17T01:47:27.504Z,924.33
2018-10-17T01:48:59.098Z,924.29
2018-10-17T01:50:30.649Z,924.22
2018-10-17T01:52:02.229Z,924.19
2018-10-17T01:53:34.051Z,924.14
2018-10-17T01:55:05.471Z,924.11
2018-10-17T01:56:36.942Z,924.13
2018-10-17T01:58:08.516Z,924.10
2018-10-17T01:59:40.393Z,924.04
2018-10-17T02:01:11.977Z,923.99
2018-10-17T02:02:43.263Z,923.94
2018-10-17T02:04:14.819Z,923.88
2018-10-17T02:05:46.382Z,923.88
2018-10-17T02:07:17.956Z,923.85
2018-10-17T02:08:49.529Z,923.95
2018-10-17T02:10:21.103Z,923.97
2018-10-17T02:11:52.786Z,923.97
2018-10-17T02:13:24.247Z,923.98
2018-10-17T02:14:56.023Z,924.04
2018-10-17T02:16:27.393Z,924.04
2018-10-17T02:17:59.119Z,924.04
2018-10-17T02:19:30.543Z,924.01
2018-10-17T02:21:02.114Z,924.06
2018-10-17T02:22:33.687Z,924.04
2018-10-17T02:24:05.329Z,924.07
2018-10-17T02:25:36.833Z,924.05
2018-10-17T02:27:08.410Z,923.99
2018-10-17T02:28:39.980Z,924.01
2018-10-17T02:30:11.867Z,924.00
2018-10-17T02:31:43.154Z,923.98
2018-10-17T02:33:14.707Z,923.88
2018-10-17T02:34:46.275Z,923.84
2018-10-17T02:36:17.849Z,923.83
2018-10-17T02:37:49.431Z,923.84
2018-10-17T02:39:21.059Z,923.81
2018-10-17T02:40:52.570Z,923.79
2018-10-17T02:42:24.142Z,923.77
2018-10-17T02:43:55.823Z,923.78
2018-10-17T02:45:27.343Z,923.76
2018-10-17T02:46:58.912Z,923.82
2018-10-17T02:48:30.648Z,923.86
2018-10-17T02:50:02.010Z,923.83
2018-10-17T02:51:33.584Z,923.86
2018-10-17T02:53:05.232Z,923.88
2018-10-17T02:54:36.731Z,923.93
2018-10-17T02:56:08.303Z,923.92
2018-10-17T02:57:40.383Z,923.93
2018-10-17T02:59:11.533Z,923.95
2018-10-17T03:00:43.025Z,923.99
2018-10-17T03:02:14.627Z,924.03
2018-10-17T03:05:17.885Z,923.99
2018-10-17T03:06:49.419Z,923.93
2018-10-17T03:08:20.893Z,923.86
2018-10-17T03:09:52.466Z,923.84
2018-10-17T03:11:24.039Z,923.80
2018-10-17T03:12:55.837Z,923.67
2018-10-17T03:14:27.194Z,923.70
2018-10-17T03:15:58.761Z,923.53
2018-10-17T03:17:30.333Z,923.48
2018-10-17T03:19:02.045Z,923.43
2018-10-17T03:20:33.483Z,923.35
2018-10-17T03:22:05.051Z,923.45
2018-10-17T03:23:36.623Z,923.51
2018-10-17T03:25:08.421Z,923.49
2018-10-17T03:26:39.771Z,923.51
2018-10-17T03:28:11.371Z,923.50
2018-10-17T03:29:42.916Z,923.49
2018-10-17T03:31:14.550Z,923.56
2018-10-17T03:32:46.063Z,923.53
2018-10-17T03:34:17.636Z,923.60
2018-10-17T03:35:49.244Z,923.64
2018-10-17T03:37:20.782Z,923.60
2018-10-17T03:38:52.355Z,923.64
2018-10-17T03:40:23.927Z,923.53
2018-10-17T03:41:55.508Z,923.52
2018-10-17T03:43:27.176Z,923.50
2018-10-17T03:44:58.649Z,923.43
2018-10-17T03:46:30.233Z,923.40
2018-10-17T03:48:01.794Z,923.39
2018-10-17T03:49:33.500Z,923.35
2018-10-17T03:51:05.011Z,923.38
2018-10-17T03:52:36.513Z,923.36
2018-10-17T03:55:40.480Z,923.36
2018-10-17T03:57:11.225Z,923.35
2018-10-17T03:58:42.798Z,923.31
2018-10-17T04:09:23.914Z,923.20
2018-10-17T04:10:55.407Z,923.15
2018-10-17T04:15:30.205Z,923.07
2018-10-17T04:17:01.700Z,923.08
2018-10-17T04:21:37.396Z,922.98
2018-10-17T04:23:09.000Z,923.03
2018-10-17T04:24:40.150Z,922.97
2018-10-17T04:26:11.115Z,922.95
2018-10-17T04:27:42.785Z,922.95
2018-10-17T04:29:14.350Z,922.94
2018-10-17T04:30:45.831Z,922.85
2018-10-17T04:32:17.405Z,922.79
2018-10-17T04:33:49.181Z,922.72
2018-10-17T04:39:56.321Z,922.71
2018-10-17T04:41:26.843Z,922.78
2018-10-17T04:42:58.455Z,922.79
2018-10-17T04:46:01.871Z,922.88
2018-10-17T04:50:36.586Z,922.81
2018-10-17T04:52:07.951Z,922.83
2018-10-17T04:53:39.626Z,922.82
2018-10-17T04:55:11.143Z,922.76
2018-10-17T04:56:42.570Z,922.81
2018-10-17T05:02:48.860Z,922.78
2018-10-17T05:04:20.594Z,922.75
2018-10-17T05:05:52.006Z,922.76
2018-10-17T05:11:58.297Z,922.80
2018-10-17T05:13:29.870Z,922.75
2018-10-17T05:15:01.467Z,922.80
2018-10-17T05:16:33.217Z,922.77
2018-10-17T05:21:07.734Z,922.78
2018-10-17T05:22:39.407Z,922.68
2018-10-17T05:24:10.883Z,922.70
2018-10-17T05:25:42.453Z,922.77
2018-10-17T05:34:52.143Z,922.66
2018-10-17T05:36:23.462Z,922.69
2018-10-17T05:37:55.990Z,922.76
2018-10-17T05:39:26.612Z,922.66
2018-10-17T05:40:58.359Z,922.80
2018-10-17T05:44:01.327Z,922.79
2018-10-17T05:50:07.618Z,922.83
2018-10-17T05:51:39.194Z,922.83
2018-10-17T05:53:10.994Z,922.79
2018-10-17T05:54:42.338Z,922.80
2018-10-17T05:56:13.913Z,922.81
2018-10-17T05:57:45.481Z,922.77
2018-10-17T06:06:54.980Z,922.86
2018-10-17T06:08:26.493Z,922.86
2018-10-17T06:09:58.066Z,922.85
2018-10-17T06:23:42.525Z,922.70
2018-10-17T06:26:45.579Z,922.67
2018-10-17T06:28:16.989Z,922.65
2018-10-17T06:38:57.953Z,922.64
2018-10-17T06:42:01.553Z,922.71
2018-10-17T06:43:32.827Z,922.60
2018-10-17T06:46:35.816Z,922.65
2018-10-17T06:48:07.694Z,922.63
2018-10-17T06:49:38.963Z,922.59
2018-10-17T06:58:48.401Z,922.82
2018-10-17T07:00:20.275Z,922.79
2018-10-17T07:01:51.561Z,922.76
2018-10-17T07:07:57.837Z,922.90
2018-10-17T07:11:01.055Z,922.99
2018-10-17T07:12:32.659Z,923.02
2018-10-17T07:14:04.128Z,923.04
2018-10-17T07:15:35.868Z,923.06
2018-10-17T07:21:42.202Z,923.21
2018-10-17T07:23:13.632Z,923.19
2018-10-17T07:26:16.914Z,923.32
2018-10-17T07:27:48.331Z,923.35
2018-10-17T07:32:24.708Z,923.38
2018-10-17T07:35:26.193Z,923.43
2018-10-17T07:36:57.723Z,923.34
2018-10-17T07:38:29.447Z,923.34
2018-10-17T07:40:00.869Z,923.37
2018-10-17T07:41:32.444Z,923.46
2018-10-17T07:47:38.735Z,923.61
2018-10-17T07:49:10.307Z,923.61
2018-10-17T07:50:42.124Z,923.52
2018-10-17T07:59:51.392Z,923.63
2018-10-17T08:01:23.195Z,923.62
2018-10-17T08:02:54.899Z,923.69
2018-10-17T08:15:07.198Z,923.68
2018-10-17T08:16:38.623Z,923.83
2018-10-17T08:18:10.227Z,923.86
2018-10-17T08:27:19.765Z,924.11
2018-10-17T08:33:26.423Z,924.14
2018-10-17T08:34:57.493Z,924.15
2018-10-17T08:36:29.229Z,924.20
2018-10-17T08:38:00.662Z,924.21
2018-10-17T08:39:32.313Z,924.25
2018-10-17T08:48:41.649Z,924.33
2018-10-17T08:50:13.575Z,924.38
2018-10-17T08:51:44.987Z,924.41
2018-10-17T08:57:51.335Z,924.43
2018-10-17T08:59:22.658Z,924.40
2018-10-17T09:00:54.231Z,924.46
2018-10-17T09:02:25.806Z,924.43
2018-10-17T09:10:04.551Z,924.42
2018-10-17T09:11:35.352Z,924.42
2018-10-17T09:13:06.814Z,924.47
2018-10-17T09:14:38.448Z,924.50
2018-10-17T09:22:16.975Z,924.72
2018-10-17T09:25:19.531Z,924.73
2018-10-17T09:31:25.693Z,924.85
2018-10-17T09:32:57.873Z,924.88
2018-10-17T09:34:29.270Z,924.89
2018-10-17T09:36:00.515Z,924.91
2018-10-17T09:37:32.005Z,924.87
2018-10-17T09:43:38.282Z,925.11
2018-10-17T09:45:09.889Z,925.21
2018-10-17T09:46:41.626Z,925.22
2018-10-17T09:48:13.020Z,925.22
2018-10-17T09:54:19.507Z,925.23
2018-10-17T09:55:50.883Z,925.25
2018-10-17T09:57:22.453Z,925.30
2018-10-17T10:03:28.748Z,925.54
2018-10-17T10:11:07.059Z,925.72
2018-10-17T10:12:39.057Z,925.68
2018-10-17T10:14:10.071Z,925.58
2018-10-17T10:15:41.348Z,925.68
2018-10-17T10:23:19.808Z,925.64
2018-10-17T10:24:51.284Z,925.80
2018-10-17T10:27:54.737Z,925.77
2018-10-17T10:29:25.979Z,925.79
2018-10-17T10:30:57.221Z,925.76
2018-10-17T10:32:28.842Z,925.86
2018-10-17T10:34:00.875Z,925.91
2018-10-17T10:35:32.706Z,925.93
2018-10-17T10:37:03.733Z,925.91
2018-10-17T10:38:35.790Z,925.89
2018-10-17T10:40:06.991Z,925.96
2018-10-17T10:41:39.242Z,925.92
2018-10-17T10:43:09.991Z,925.90
2018-10-17T10:44:41.608Z,925.95
2018-10-17T10:46:13.349Z,925.94
2018-10-17T10:47:44.749Z,925.95
2018-10-17T10:49:16.179Z,926.00
2018-10-17T10:50:47.731Z,926.01
2018-10-17T10:52:19.730Z,925.89
2018-10-17T10:55:23.494Z,926.02
2018-10-17T10:56:54.154Z,926.14
2018-10-17T10:58:26.325Z,926.25
2018-10-17T10:59:57.796Z,926.30
2018-10-17T11:01:29.894Z,926.29
2018-10-17T11:03:01.994Z,926.26
2018-10-17T11:04:32.858Z,926.21
2018-10-17T11:06:04.998Z,926.16
2018-10-17T11:07:35.473Z,926.13
2018-10-17T11:09:08.178Z,926.06
2018-10-17T11:10:39.032Z,925.95
2018-10-17T11:12:09.927Z,926.10
2018-10-17T11:13:41.943Z,926.09
2018-10-17T11:15:13.722Z,926.17
2018-10-17T11:16:45.636Z,926.13
2018-10-17T11:18:17.740Z,926.02
2018-10-17T11:19:49.398Z,926.10
2018-10-17T11:21:20.423Z,926.03
2018-10-17T11:22:53.208Z,926.00
2018-10-17T11:24:23.839Z,926.08
2018-10-17T11:25:55.207Z,926.09
2018-10-17T11:27:27.746Z,926.03
2018-10-17T11:28:57.898Z,926.04
2018-10-17T11:30:30.713Z,926.01
2018-10-17T11:32:03.971Z,926.04
2018-10-17T11:33:33.261Z,926.00
2018-10-17T11:35:04.972Z,926.03
2018-10-17T11:36:36.736Z,926.01
2018-10-17T11:38:07.732Z,926.09
2018-10-17T11:39:39.746Z,925.97
2018-10-17T11:41:11.097Z,925.98
2018-10-17T11:42:43.178Z,926.09
2018-10-17T11:44:14.861Z,926.06
2018-10-17T11:45:45.714Z,926.02
2018-10-17T11:47:18.127Z,926.11
2018-10-17T11:48:48.717Z,926.19
2018-10-17T11:50:20.311Z,926.14
2018-10-17T11:51:51.882Z,926.17
2018-10-17T11:53:23.830Z,926.14
2018-10-17T11:54:55.048Z,926.34
2018-10-17T11:56:27.303Z,926.18
2018-10-17T11:57:58.474Z,926.25
2018-10-17T11:59:29.884Z,926.14
2018-10-17T12:01:00.627Z,926.16
2018-10-17T12:04:04.252Z,926.28
2018-10-17T12:07:06.784Z,926.50
2018-10-17T12:08:38.305Z,926.50
2018-10-17T12:13:13.389Z,926.60
2018-10-17T12:14:45.874Z,926.62
2018-10-17T12:16:16.357Z,926.68
2018-10-17T12:17:48.952Z,926.30
2018-10-17T12:19:20.382Z,926.39
2018-10-17T12:20:51.277Z,926.38
2018-10-17T12:22:22.668Z,926.48
2018-10-17T12:23:54.102Z,926.59
2018-10-17T12:25:26.031Z,926.49
2018-10-17T12:26:57.903Z,926.57
2018-10-17T12:28:29.625Z,926.51
2018-10-17T12:30:00.836Z,926.35
2018-10-17T12:31:32.193Z,926.62
2018-10-17T12:33:03.703Z,926.73
2018-10-17T12:34:35.779Z,926.58
2018-10-17T12:36:07.341Z,926.32
2018-10-17T12:37:38.458Z,926.40
2018-10-17T12:39:10.411Z,926.39
2018-10-17T12:40:43.415Z,926.34
2018-10-17T12:42:15.999Z,926.26
2018-10-17T12:43:47.644Z,926.12
2018-10-17T12:45:16.504Z,926.09
2018-10-17T12:46:48.076Z,926.15
2018-10-17T12:48:20.627Z,926.12
2018-10-17T12:49:51.719Z,926.14
2018-10-17T12:51:23.233Z,926.08
2018-10-17T12:52:55.119Z,926.12
2018-10-17T12:54:25.908Z,926.07
2018-10-17T12:55:57.889Z,926.09
2018-10-17T12:57:29.420Z,926.15
2018-10-17T12:59:00.659Z,926.10
2018-10-17T13:00:32.494Z,926.06
2018-10-17T13:02:03.973Z,926.09
2018-10-17T13:03:35.743Z,926.05
2018-10-17T13:05:07.424Z,925.89
2018-10-17T13:06:40.809Z,925.99
2018-10-17T13:08:10.320Z,926.10
2018-10-17T13:09:43.387Z,926.05
2018-10-17T13:11:13.339Z,925.91
2018-10-17T13:12:45.310Z,925.93
2018-10-17T13:14:17.361Z,925.84
2018-10-17T13:15:47.963Z,925.88
2018-10-17T13:17:19.765Z,925.98
2018-10-17T13:18:51.557Z,926.08
2018-10-17T13:20:22.766Z,926.14
2018-10-17T13:21:56.877Z,926.40
2018-10-17T13:23:26.513Z,926.38
2018-10-17T13:24:58.694Z,926.22
2018-10-17T13:26:29.221Z,926.30
2018-10-17T13:28:00.777Z,926.25
2018-10-17T13:29:32.962Z,926.33
2018-10-17T13:32:36.122Z,926.57
2018-10-17T13:34:07.194Z,926.58
2018-10-17T13:35:38.940Z,926.56
2018-10-17T13:37:10.562Z,926.48
2018-10-17T13:38:42.064Z,926.35
2018-10-17T13:40:13.393Z,926.34
2018-10-17T13:41:45.233Z,926.26
2018-10-17T13:43:16.799Z,926.34
2018-10-17T13:44:48.534Z,926.13
2018-10-17T13:46:20.015Z,926.22
2018-10-17T13:47:51.303Z,926.29
2018-10-17T13:49:23.462Z,926.27
2018-10-17T13:50:55.156Z,925.94
2018-10-17T13:52:27.290Z,925.95
2018-10-17T13:53:57.907Z,925.96
2018-10-17T13:55:29.371Z,925.79
2018-10-17T13:57:01.241Z,925.99
2018-10-17T13:58:33.626Z,926.12
2018-10-17T14:00:04.106Z,925.93
2018-10-17T14:01:35.581Z,925.80
2018-10-17T14:03:08.118Z,925.88
2018-10-17T14:06:12.289Z,926.28
2018-10-17T14:09:16.895Z,926.17
2018-10-17T14:12:16.824Z,926.27
2018-10-17T14:13:48.827Z,926.00
2018-10-17T14:15:20.498Z,926.10
2018-10-17T14:16:51.714Z,926.00
2018-10-17T14:18:23.165Z,925.84
2018-10-17T14:19:54.590Z,925.73
2018-10-17T14:21:26.265Z,925.89
2018-10-17T14:22:57.729Z,925.81
2018-10-17T14:24:29.443Z,925.90
2018-10-17T14:26:00.856Z,925.80
2018-10-17T14:27:32.700Z,925.92
2018-10-17T14:29:04.304Z,926.09
2018-10-17T14:32:08.070Z,925.67
2018-10-17T14:35:11.744Z,925.75
2018-10-17T14:36:43.493Z,925.66
2018-10-17T14:38:14.772Z,925.57
2018-10-17T14:39:47.468Z,925.55
2018-10-17T14:41:17.843Z,925.50
2018-10-17T14:42:50.107Z,925.52
2018-10-17T14:44:21.414Z,925.56
2018-10-17T14:45:53.585Z,925.58
2018-10-17T14:47:24.652Z,925.79
2018-10-17T14:48:56.233Z,925.56
2018-10-17T14:50:28.323Z,925.39
2018-10-17T14:52:01.350Z,925.40
2018-10-17T14:53:30.814Z,925.60
2018-10-17T14:55:02.049Z,925.22
2018-10-17T14:56:33.265Z,925.37
2018-10-17T14:58:04.760Z,925.22
2018-10-17T14:59:36.789Z,925.27
2018-10-17T15:01:08.093Z,925.33
2018-10-17T15:02:40.213Z,925.19
2018-10-17T15:04:11.340Z,925.24
2018-10-17T15:05:43.734Z,925.20
2018-10-17T15:07:14.789Z,925.10
2018-10-17T15:08:45.383Z,925.24
2018-10-17T15:10:17.622Z,925.45
2018-10-17T15:11:50.270Z,925.34
2018-10-17T15:13:20.526Z,925.67
2018-10-17T15:16:23.316Z,925.42
2018-10-17T15:17:54.840Z,925.53
2018-10-17T15:20:58.136Z,925.28
2018-10-17T15:22:29.692Z,925.19
2018-10-17T15:24:01.330Z,925.26
2018-10-17T15:25:33.651Z,925.06
2018-10-17T15:27:04.361Z,924.88
2018-10-17T15:28:35.904Z,924.82
2018-10-17T15:30:08.944Z,925.02
2018-10-17T15:33:11.065Z,925.00
2018-10-17T15:34:42.246Z,925.02
2018-10-17T15:36:13.903Z,924.93
2018-10-17T15:37:45.666Z,925.15
2018-10-17T15:39:17.317Z,925.28
2018-10-17T15:42:20.778Z,925.50
2018-10-17T15:43:52.319Z,925.42
2018-10-17T15:46:55.076Z,924.93
2018-10-17T15:48:26.808Z,924.93
2018-10-17T15:51:30.483Z,924.86
2018-10-17T15:53:02.103Z,925.11
2018-10-17T15:54:33.343Z,925.21
2018-10-17T15:56:06.791Z,925.34
2018-10-17T15:57:40.373Z,925.49
2018-10-17T15:59:09.034Z,925.41
2018-10-17T16:02:11.692Z,924.84
2018-10-17T16:03:42.977Z,924.94
2018-10-17T16:05:14.149Z,924.88
2018-10-17T16:06:45.901Z,925.13
2018-10-17T16:08:18.305Z,925.01
2018-10-17T16:09:48.848Z,924.86
2018-10-17T16:11:21.210Z,924.78
2018-10-17T16:12:53.051Z,924.44
2018-10-17T16:14:25.322Z,924.26
2018-10-17T16:15:55.582Z,924.40
2018-10-17T16:17:27.169Z,924.42
2018-10-17T16:18:59.231Z,924.57
2018-10-17T16:20:31.547Z,924.53
2018-10-17T16:22:01.481Z,924.26
2018-10-17T16:23:34.794Z,924.44
2018-10-17T16:25:05.604Z,924.65
2018-10-17T16:26:38.427Z,924.77
2018-10-17T16:28:12.222Z,924.51
2018-10-17T16:31:12.612Z,924.11
2018-10-17T16:32:43.426Z,923.84
2018-10-17T16:34:14.952Z,923.89
2018-10-17T16:35:46.484Z,924.00
2018-10-17T16:37:18.521Z,923.93
2018-10-17T16:38:49.846Z,924.07
2018-10-17T16:40:21.641Z,924.01
2018-10-17T16:41:52.941Z,924.09
2018-10-17T16:43:25.830Z,924.14
2018-10-17T16:44:57.148Z,924.13
2018-10-17T16:46:28.193Z,924.08
2018-10-17T16:47:58.999Z,924.05
2018-10-17T16:49:31.742Z,924.04
2018-10-17T16:51:02.870Z,924.23
2018-10-17T16:52:33.860Z,924.15
2018-10-17T16:54:05.780Z,924.16
2018-10-17T16:55:37.309Z,924.10
2018-10-17T16:57:09.616Z,924.34
2018-10-17T16:58:40.651Z,924.31
2018-10-17T17:00:12.992Z,924.27
2018-10-17T17:01:44.246Z,924.38
2018-10-17T17:03:15.401Z,924.29
2018-10-17T17:04:46.768Z,924.38
2018-10-17T17:06:19.770Z,924.50
2018-10-17T17:07:49.529Z,924.67
2018-10-17T17:09:21.526Z,924.78
2018-10-17T17:10:52.785Z,924.63
2018-10-17T17:12:24.526Z,924.35
2018-10-17T17:13:55.414Z,924.29
2018-10-17T17:15:27.743Z,924.21
2018-10-17T17:16:59.057Z,924.25
2018-10-17T17:18:30.437Z,924.37
2018-10-17T17:20:01.699Z,924.33
2018-10-17T17:21:33.339Z,924.27
2018-10-17T17:23:04.764Z,924.05
2018-10-17T17:24:36.568Z,924.08
2018-10-17T17:26:07.874Z,923.99
2018-10-17T17:27:40.604Z,923.95
2018-10-17T17:29:13.594Z,924.09
2018-10-17T17:30:45.178Z,924.02
2018-10-17T17:32:14.424Z,924.01
2018-10-17T17:33:47.404Z,924.07
2018-10-17T17:36:49.984Z,923.63
2018-10-17T17:38:20.793Z,923.51
2018-10-17T17:39:52.231Z,923.48
2018-10-17T17:41:24.333Z,923.49
2018-10-17T17:42:55.316Z,923.46
2018-10-17T17:45:58.483Z,923.38
2018-10-17T17:47:30.060Z,923.42
2018-10-17T17:49:02.169Z,923.40
2018-10-17T17:52:04.925Z,923.41
2018-10-17T17:53:36.452Z,923.37
2018-10-17T17:55:08.008Z,923.38
2018-10-17T17:59:43.460Z,923.35
2018-10-17T18:02:45.934Z,923.19
2018-10-17T18:08:53.101Z,923.32
2018-10-17T18:10:24.388Z,923.32
2018-10-17T18:11:56.403Z,923.35
2018-10-17T18:13:27.062Z,923.32
2018-10-17T18:16:30.239Z,923.30
2018-10-17T18:18:02.132Z,923.29
2018-10-17T18:19:33.420Z,923.31
2018-10-17T18:21:05.004Z,923.32
2018-10-17T18:22:36.596Z,923.30
2018-10-17T18:25:40.309Z,923.29
2018-10-17T18:27:11.361Z,923.28
2018-10-17T18:28:43.155Z,923.27
2018-10-17T18:30:14.543Z,923.21
2018-10-17T18:31:46.332Z,923.22
2018-10-17T18:33:17.719Z,923.30
2018-10-17T18:34:49.306Z,923.15
2018-10-17T18:36:20.898Z,923.02
2018-10-17T18:37:52.683Z,922.98
2018-10-17T18:40:55.654Z,923.02
2018-10-17T18:42:27.237Z,922.88
2018-10-17T18:43:58.823Z,922.82
2018-10-17T18:47:02.110Z,922.87
2018-10-17T18:48:33.572Z,922.86
2018-10-17T18:50:05.155Z,922.90
2018-10-17T18:51:36.940Z,922.97
2018-10-17T18:56:11.541Z,922.83
2018-10-17T18:57:43.067Z,922.79
2018-10-17T18:59:14.650Z,922.78
2018-10-17T19:00:46.255Z,922.74
2018-10-17T19:02:17.976Z,922.73
2018-10-17T19:03:49.652Z,922.71
2018-10-17T19:05:20.977Z,922.73
2018-10-17T19:06:52.559Z,922.76
2018-10-17T19:08:24.441Z,922.66
2018-10-17T19:09:56.658Z,922.65
2018-10-17T19:11:27.302Z,922.65
2018-10-17T19:12:59.416Z,922.57
2018-10-17T19:14:30.465Z,922.55
2018-10-17T19:16:02.269Z,922.51
2018-10-17T19:17:33.635Z,922.49
2018-10-17T19:19:06.145Z,922.52
2018-10-17T19:20:36.887Z,922.53
2018-10-17T19:22:08.390Z,922.61
2018-10-17T19:23:39.947Z,922.65
2018-10-17T19:26:43.113Z,922.85
2018-10-17T19:28:14.689Z,923.05
2018-10-17T19:29:46.267Z,923.30
2018-10-17T19:31:17.846Z,923.48
2018-10-17T19:32:50.015Z,923.67
2018-10-17T19:34:21.003Z,923.74
2018-10-17T19:37:24.170Z,924.00
2018-10-17T19:38:55.893Z,924.11
2018-10-17T19:40:27.321Z,924.11
2018-10-17T19:41:58.972Z,923.88
2018-10-17T19:46:27.118Z,923.58
2018-10-17T19:47:58.642Z,923.64
2018-10-17T19:49:30.164Z,923.69
2018-10-17T19:51:01.773Z,923.80
2018-10-17T19:52:33.321Z,923.76
2018-10-17T19:54:05.034Z,923.79
2018-10-17T19:55:36.460Z,923.84
2018-10-17T19:58:39.706Z,923.57
2018-10-17T20:00:11.493Z,923.66
2018-10-17T20:01:42.763Z,923.68
2018-10-17T20:03:14.482Z,923.81
2018-10-17T20:04:45.898Z,923.96
2018-10-17T20:06:17.480Z,924.02
2018-10-17T20:07:49.503Z,923.99
2018-10-17T20:09:20.618Z,924.02
2018-10-17T20:10:52.394Z,923.96
2018-10-17T20:12:23.768Z,923.96
2018-10-17T20:13:55.540Z,923.99
2018-10-17T20:15:26.912Z,924.04
2018-10-17T20:16:59.219Z,924.14
2018-10-17T20:18:30.058Z,924.22
2018-10-17T20:20:01.633Z,924.27
2018-10-17T20:21:33.212Z,924.25
2018-10-17T20:23:04.778Z,924.31
2018-10-17T20:24:36.351Z,924.30
2018-10-17T20:26:07.925Z,924.27
2018-10-17T20:27:39.498Z,924.42
2018-10-17T20:29:11.171Z,924.30
2018-10-17T20:30:42.644Z,924.38
2018-10-17T20:32:14.217Z,924.34
2018-10-17T20:33:45.790Z,924.31
2018-10-17T20:35:17.527Z,924.37
2018-10-17T20:36:48.937Z,924.29
2018-10-17T20:38:20.513Z,924.18
2018-10-17T20:41:23.657Z,924.18
2018-10-17T20:42:55.232Z,924.10
2018-10-17T20:44:26.806Z,924.26
2018-10-17T20:45:58.375Z,924.16
2018-10-17T20:47:29.948Z,924.16
2018-10-17T20:49:01.534Z,924.14
2018-10-17T20:50:33.096Z,924.07
2018-10-17T20:52:04.665Z,923.96
2018-10-17T20:53:36.338Z,923.95
2018-10-17T20:55:07.824Z,923.90
2018-10-17T20:56:39.396Z,923.83
2018-10-17T20:58:11.039Z,923.72
2018-10-17T21:01:14.102Z,923.71
2018-10-17T21:02:45.674Z,923.77
2018-10-17T21:04:17.458Z,923.71
2018-10-17T21:07:20.393Z,923.66
2018-10-17T21:08:52.270Z,923.59
2018-10-17T21:10:23.538Z,923.58
2018-10-17T21:11:55.112Z,923.64
2018-10-17T21:13:26.785Z,923.66
2018-10-17T21:14:58.563Z,923.71
2018-10-17T21:16:29.831Z,923.67
2018-10-17T21:18:01.404Z,923.66
2018-10-17T21:19:32.978Z,923.65
2018-10-17T21:21:04.550Z,923.63
2018-10-17T21:22:36.123Z,923.59
2018-10-17T21:24:07.697Z,923.67
2018-10-17T21:25:39.370Z,923.69
2018-10-17T21:27:10.846Z,923.78
2018-10-17T21:28:42.417Z,923.82
2018-10-17T21:30:13.991Z,923.89
2018-10-17T21:31:45.765Z,923.90
2018-10-17T21:33:17.139Z,923.95
2018-10-17T21:34:48.711Z,923.93
2018-10-17T21:36:20.285Z,923.91
2018-10-17T21:37:52.032Z,923.93
2018-10-17T21:39:23.432Z,923.90
2018-10-17T21:40:55.006Z,923.88
2018-10-17T21:42:26.579Z,923.94
2018-10-17T21:43:58.158Z,923.96
2018-10-17T21:45:29.726Z,924.02
2018-10-17T21:47:01.300Z,923.97
2018-10-17T21:48:32.872Z,924.02
2018-10-17T21:50:04.600Z,924.01
2018-10-17T21:51:36.020Z,924.02
2018-10-17T21:53:07.593Z,924.08
2018-10-17T21:54:39.167Z,924.11
2018-10-17T21:56:10.796Z,924.13
2018-10-17T21:59:13.889Z,924.18
2018-10-17T22:00:45.462Z,924.15
2018-10-17T22:02:17.268Z,924.10
2018-10-17T22:03:48.609Z,924.07
2018-10-17T22:05:20.184Z,924.04
2018-10-17T22:06:51.966Z,924.06
2018-10-17T22:08:23.432Z,924.12
2018-10-17T22:09:55.001Z,924.18
2018-10-17T22:11:26.485Z,924.28
2018-10-17T22:12:58.052Z,924.41
2018-10-17T22:14:29.626Z,924.48
2018-10-17T22:16:01.199Z,924.43
2018-10-17T22:17:32.776Z,924.47
2018-10-17T22:27:41.644Z,924.60
2018-10-17T22:29:13.192Z,924.64
2018-10-17T22:30:44.698Z,924.65
2018-10-17T22:32:16.391Z,924.61
2018-10-17T22:33:48.069Z,924.57
2018-10-17T22:35:19.411Z,924.60
2018-10-17T22:36:51.322Z,924.58
2018-10-17T22:38:22.483Z,924.58
2018-10-17T22:39:54.002Z,924.64
2018-10-17T22:41:25.716Z,924.67
2018-10-17T22:42:57.231Z,924.70
2018-10-17T22:44:28.704Z,924.75
2018-10-17T22:46:00.278Z,924.83
2018-10-17T22:47:31.853Z,924.91
2018-10-17T22:49:03.426Z,925.01
2018-10-17T22:50:35.009Z,925.02
2018-10-17T22:52:06.574Z,925.05
2018-10-17T22:53:38.189Z,925.11
2018-10-17T22:55:09.789Z,925.08
2018-10-17T22:56:41.906Z,925.10
2018-10-17T22:58:12.909Z,925.10
2018-10-17T22:59:44.494Z,925.03
2018-10-17T23:01:16.156Z,925.11
2018-10-17T23:02:47.581Z,925.18
2018-10-17T23:04:19.155Z,925.11
2018-10-17T23:05:50.728Z,925.13
2018-10-17T23:07:22.302Z,925.22
2018-10-17T23:10:25.450Z,925.24
2018-10-17T23:11:57.070Z,925.25
2018-10-17T23:13:29.420Z,925.23
2018-10-17T23:15:00.222Z,925.22
2018-10-17T23:16:31.796Z,925.22
2018-10-17T23:18:03.370Z,925.21
2018-10-17T23:19:35.042Z,925.19
2018-10-17T23:21:06.520Z,925.18
2018-10-17T23:22:38.033Z,925.15
2018-10-17T23:24:09.609Z,925.14
2018-10-17T23:25:41.182Z,925.17
2018-10-17T23:27:12.767Z,925.18
2018-10-17T23:28:44.330Z,925.19
2018-10-17T23:30:15.904Z,925.21
2018-10-17T23:31:47.540Z,925.18
2018-10-17T23:33:19.673Z,925.16
2018-10-17T23:34:50.682Z,925.10
2018-10-17T23:36:22.305Z,925.13
2018-10-17T23:37:54.051Z,925.23
2018-10-17T23:39:25.402Z,925.19
2018-10-17T23:40:57.047Z,925.22
2018-10-17T23:42:28.613Z,925.26
2018-10-17T23:44:00.418Z,925.30
2018-10-17T23:45:31.748Z,925.32
2018-10-17T23:47:03.288Z,925.30